sensor_id;sensor_type;location;lat;lon;timestamp;P1;durP1;ratioP1;P2;durP2;ratioP2
31618;SDS011;18230;51.502;7.108;2023-08-07T00:00:39;14.00;;;5.93;;
31618;SDS011;18230;51.502;7.108;2023-08-07T00:05:40;7.90;;;4.55;;
31618;SDS011;18230;51.502;7.108;2023-08-07T00:10:40;6.43;;;3.45;;
31618;SDS011;18230;51.502;7.108;2023-08-07T00:15:41;8.25;;;3.20;;
31618;SDS011;18230;51.502;7.108;2023-08-07T00:20:42;6.90;;;2.55;;
31618;SDS011;18230;51.502;7.108;2023-08-07T00:25:42;6.90;;;2.85;;
31618;SDS011;18230;51.502;7.108;2023-08-07T00:30:43;11.63;;;3.90;;
31618;SDS011;18230;51.502;7.108;2023-08-07T00:35:44;11.57;;;4.20;;
31618;SDS011;18230;51.502;7.108;2023-08-07T00:40:44;18.25;;;3.83;;
31618;SDS011;18230;51.502;7.108;2023-08-07T00:45:45;13.85;;;3.47;;
31618;SDS011;18230;51.502;7.108;2023-08-07T00:50:47;12.70;;;3.55;;
31618;SDS011;18230;51.502;7.108;2023-08-07T00:55:49;14.05;;;3.83;;
31618;SDS011;18230;51.502;7.108;2023-08-07T01:00:49;14.10;;;4.45;;
31618;SDS011;18230;51.502;7.108;2023-08-07T01:05:50;12.25;;;4.40;;
31618;SDS011;18230;51.502;7.108;2023-08-07T01:11:39;8.25;;;4.07;;
31618;SDS011;18230;51.502;7.108;2023-08-07T01:21:46;17.73;;;4.47;;
31618;SDS011;18230;51.502;7.108;2023-08-07T01:26:49;13.57;;;3.88;;
31618;SDS011;18230;51.502;7.108;2023-08-07T01:31:50;13.20;;;3.97;;
31618;SDS011;18230;51.502;7.108;2023-08-07T01:36:55;16.38;;;4.07;;
31618;SDS011;18230;51.502;7.108;2023-08-07T01:41:58;13.23;;;3.97;;
31618;SDS011;18230;51.502;7.108;2023-08-07T01:47:00;12.93;;;3.33;;
31618;SDS011;18230;51.502;7.108;2023-08-07T01:52:01;13.30;;;3.35;;
31618;SDS011;18230;51.502;7.108;2023-08-07T01:57:02;13.23;;;3.40;;
31618;SDS011;18230;51.502;7.108;2023-08-07T02:02:03;12.98;;;3.70;;
31618;SDS011;18230;51.502;7.108;2023-08-07T02:07:04;11.25;;;3.50;;
31618;SDS011;18230;51.502;7.108;2023-08-07T02:12:04;7.65;;;3.20;;
31618;SDS011;18230;51.502;7.108;2023-08-07T02:17:05;8.68;;;3.35;;
31618;SDS011;18230;51.502;7.108;2023-08-07T02:22:06;7.80;;;2.65;;
31618;SDS011;18230;51.502;7.108;2023-08-07T02:27:07;4.95;;;2.50;;
31618;SDS011;18230;51.502;7.108;2023-08-07T02:32:07;7.22;;;2.50;;
31618;SDS011;18230;51.502;7.108;2023-08-07T02:37:08;11.98;;;2.60;;
31618;SDS011;18230;51.502;7.108;2023-08-07T02:42:09;7.88;;;2.80;;
31618;SDS011;18230;51.502;7.108;2023-08-07T02:47:09;6.70;;;2.65;;
31618;SDS011;18230;51.502;7.108;2023-08-07T02:52:10;7.72;;;2.38;;
31618;SDS011;18230;51.502;7.108;2023-08-07T02:57:10;6.40;;;2.80;;
31618;SDS011;18230;51.502;7.108;2023-08-07T03:02:11;7.05;;;2.63;;
31618;SDS011;18230;51.502;7.108;2023-08-07T03:07:12;7.97;;;2.40;;
31618;SDS011;18230;51.502;7.108;2023-08-07T03:12:12;10.52;;;3.10;;
31618;SDS011;18230;51.502;7.108;2023-08-07T03:17:13;7.70;;;2.90;;
31618;SDS011;18230;51.502;7.108;2023-08-07T03:22:13;10.25;;;3.22;;
31618;SDS011;18230;51.502;7.108;2023-08-07T03:27:14;9.52;;;3.03;;
31618;SDS011;18230;51.502;7.108;2023-08-07T03:32:15;11.23;;;3.05;;
31618;SDS011;18230;51.502;7.108;2023-08-07T03:37:17;13.77;;;4.32;;
31618;SDS011;18230;51.502;7.108;2023-08-07T03:42:17;15.60;;;6.25;;
31618;SDS011;18230;51.502;7.108;2023-08-07T03:47:18;18.45;;;6.72;;
31618;SDS011;18230;51.502;7.108;2023-08-07T03:52:18;26.45;;;6.55;;
31618;SDS011;18230;51.502;7.108;2023-08-07T03:57:19;23.98;;;6.22;;
31618;SDS011;18230;51.502;7.108;2023-08-07T04:02:20;17.63;;;5.32;;
31618;SDS011;18230;51.502;7.108;2023-08-07T04:07:20;14.32;;;4.55;;
31618;SDS011;18230;51.502;7.108;2023-08-07T04:12:21;19.85;;;5.10;;
31618;SDS011;18230;51.502;7.108;2023-08-07T04:17:22;25.35;;;5.40;;
31618;SDS011;18230;51.502;7.108;2023-08-07T04:22:22;17.23;;;5.50;;
31618;SDS011;18230;51.502;7.108;2023-08-07T04:27:23;18.80;;;5.90;;
31618;SDS011;18230;51.502;7.108;2023-08-07T04:32:24;15.60;;;5.30;;
31618;SDS011;18230;51.502;7.108;2023-08-07T04:37:24;26.45;;;5.65;;
31618;SDS011;18230;51.502;7.108;2023-08-07T04:42:25;20.13;;;5.78;;
31618;SDS011;18230;51.502;7.108;2023-08-07T04:47:27;19.20;;;5.50;;
31618;SDS011;18230;51.502;7.108;2023-08-07T04:52:28;29.23;;;6.22;;
31618;SDS011;18230;51.502;7.108;2023-08-07T04:57:29;25.88;;;5.68;;
31618;SDS011;18230;51.502;7.108;2023-08-07T05:02:29;19.90;;;5.20;;
31618;SDS011;18230;51.502;7.108;2023-08-07T05:07:32;24.52;;;6.80;;
31618;SDS011;18230;51.502;7.108;2023-08-07T05:12:34;23.42;;;7.60;;
31618;SDS011;18230;51.502;7.108;2023-08-07T05:17:35;27.40;;;9.88;;
31618;SDS011;18230;51.502;7.108;2023-08-07T05:22:36;28.70;;;9.20;;
31618;SDS011;18230;51.502;7.108;2023-08-07T05:27:37;24.35;;;7.45;;
31618;SDS011;18230;51.502;7.108;2023-08-07T05:32:39;26.30;;;8.90;;
31618;SDS011;18230;51.502;7.108;2023-08-07T05:37:40;25.38;;;7.35;;
31618;SDS011;18230;51.502;7.108;2023-08-07T05:42:40;20.55;;;7.13;;
31618;SDS011;18230;51.502;7.108;2023-08-07T05:47:41;20.27;;;7.82;;
31618;SDS011;18230;51.502;7.108;2023-08-07T05:52:42;21.17;;;8.48;;
31618;SDS011;18230;51.502;7.108;2023-08-07T05:57:43;22.90;;;8.43;;
31618;SDS011;18230;51.502;7.108;2023-08-07T06:02:43;24.50;;;9.18;;
31618;SDS011;18230;51.502;7.108;2023-08-07T06:07:44;21.75;;;9.05;;
31618;SDS011;18230;51.502;7.108;2023-08-07T06:12:44;14.13;;;8.60;;
31618;SDS011;18230;51.502;7.108;2023-08-07T06:17:45;19.20;;;8.80;;
31618;SDS011;18230;51.502;7.108;2023-08-07T06:22:46;24.27;;;9.23;;
31618;SDS011;18230;51.502;7.108;2023-08-07T06:27:47;19.63;;;8.45;;
31618;SDS011;18230;51.502;7.108;2023-08-07T06:32:47;17.60;;;5.82;;
31618;SDS011;18230;51.502;7.108;2023-08-07T06:37:48;16.27;;;5.43;;
31618;SDS011;18230;51.502;7.108;2023-08-07T06:42:49;15.32;;;5.25;;
31618;SDS011;18230;51.502;7.108;2023-08-07T06:47:49;15.27;;;4.28;;
31618;SDS011;18230;51.502;7.108;2023-08-07T06:52:53;14.88;;;4.28;;
31618;SDS011;18230;51.502;7.108;2023-08-07T06:57:54;11.70;;;4.05;;
31618;SDS011;18230;51.502;7.108;2023-08-07T07:02:55;10.93;;;3.97;;
31618;SDS011;18230;51.502;7.108;2023-08-07T07:07:56;9.13;;;3.85;;
31618;SDS011;18230;51.502;7.108;2023-08-07T07:12:57;15.25;;;4.80;;
31618;SDS011;18230;51.502;7.108;2023-08-07T07:17:57;15.05;;;5.60;;
31618;SDS011;18230;51.502;7.108;2023-08-07T07:22:59;13.93;;;4.78;;
31618;SDS011;18230;51.502;7.108;2023-08-07T07:28:00;9.93;;;4.57;;
31618;SDS011;18230;51.502;7.108;2023-08-07T07:33:01;12.55;;;5.45;;
31618;SDS011;18230;51.502;7.108;2023-08-07T07:38:01;13.10;;;5.90;;
31618;SDS011;18230;51.502;7.108;2023-08-07T07:43:02;12.40;;;5.10;;
31618;SDS011;18230;51.502;7.108;2023-08-07T07:48:03;13.40;;;4.97;;
31618;SDS011;18230;51.502;7.108;2023-08-07T07:53:04;11.50;;;5.30;;
31618;SDS011;18230;51.502;7.108;2023-08-07T07:58:06;16.35;;;6.07;;
31618;SDS011;18230;51.502;7.108;2023-08-07T08:03:07;14.52;;;6.05;;
31618;SDS011;18230;51.502;7.108;2023-08-07T08:08:08;11.27;;;5.45;;
31618;SDS011;18230;51.502;7.108;2023-08-07T08:13:09;14.00;;;6.10;;
31618;SDS011;18230;51.502;7.108;2023-08-07T08:18:10;16.55;;;5.68;;
31618;SDS011;18230;51.502;7.108;2023-08-07T08:23:11;13.80;;;6.45;;
31618;SDS011;18230;51.502;7.108;2023-08-07T08:28:12;12.80;;;4.18;;
31618;SDS011;18230;51.502;7.108;2023-08-07T08:33:12;10.02;;;3.75;;
31618;SDS011;18230;51.502;7.108;2023-08-07T08:38:14;10.52;;;3.92;;
31618;SDS011;18230;51.502;7.108;2023-08-07T08:43:16;19.95;;;4.78;;
31618;SDS011;18230;51.502;7.108;2023-08-07T08:48:19;15.23;;;5.00;;
31618;SDS011;18230;51.502;7.108;2023-08-07T08:53:23;16.70;;;5.82;;
31618;SDS011;18230;51.502;7.108;2023-08-07T08:58:25;20.02;;;5.80;;
31618;SDS011;18230;51.502;7.108;2023-08-07T09:03:26;14.93;;;4.95;;
31618;SDS011;18230;51.502;7.108;2023-08-07T09:20:03;19.48;;;5.00;;
31618;SDS011;18230;51.502;7.108;2023-08-07T09:25:06;19.40;;;4.38;;
31618;SDS011;18230;51.502;7.108;2023-08-07T09:30:09;14.10;;;4.22;;
31618;SDS011;18230;51.502;7.108;2023-08-07T09:35:11;16.58;;;3.90;;
31618;SDS011;18230;51.502;7.108;2023-08-07T09:40:18;14.63;;;4.72;;
31618;SDS011;18230;51.502;7.108;2023-08-07T09:45:23;19.20;;;5.90;;
31618;SDS011;18230;51.502;7.108;2023-08-07T09:50:40;18.52;;;4.50;;
31618;SDS011;18230;51.502;7.108;2023-08-07T09:55:48;14.95;;;4.32;;
31618;SDS011;18230;51.502;7.108;2023-08-07T10:00:53;14.23;;;3.58;;
31618;SDS011;18230;51.502;7.108;2023-08-07T10:06:00;16.65;;;4.60;;
31618;SDS011;18230;51.502;7.108;2023-08-07T10:11:02;17.73;;;4.40;;
31618;SDS011;18230;51.502;7.108;2023-08-07T10:16:02;12.77;;;3.88;;
31618;SDS011;18230;51.502;7.108;2023-08-07T10:21:04;9.70;;;3.45;;
31618;SDS011;18230;51.502;7.108;2023-08-07T10:26:05;14.88;;;4.43;;
31618;SDS011;18230;51.502;7.108;2023-08-07T10:31:10;14.50;;;4.65;;
31618;SDS011;18230;51.502;7.108;2023-08-07T10:36:15;12.50;;;3.65;;
31618;SDS011;18230;51.502;7.108;2023-08-07T10:41:17;16.80;;;4.97;;
31618;SDS011;18230;51.502;7.108;2023-08-07T10:46:22;12.73;;;4.38;;
31618;SDS011;18230;51.502;7.108;2023-08-07T10:51:23;12.70;;;3.80;;
31618;SDS011;18230;51.502;7.108;2023-08-07T10:56:32;15.90;;;3.25;;
31618;SDS011;18230;51.502;7.108;2023-08-07T11:06:35;13.10;;;3.20;;
31618;SDS011;18230;51.502;7.108;2023-08-07T11:11:37;13.38;;;3.67;;
31618;SDS011;18230;51.502;7.108;2023-08-07T11:16:40;14.40;;;3.35;;
31618;SDS011;18230;51.502;7.108;2023-08-07T11:21:41;15.38;;;3.97;;
31618;SDS011;18230;51.502;7.108;2023-08-07T11:26:43;17.38;;;4.03;;
31618;SDS011;18230;51.502;7.108;2023-08-07T11:31:47;13.57;;;3.47;;
31618;SDS011;18230;51.502;7.108;2023-08-07T11:36:48;16.63;;;3.47;;
31618;SDS011;18230;51.502;7.108;2023-08-07T11:41:50;19.13;;;4.15;;
31618;SDS011;18230;51.502;7.108;2023-08-07T11:46:52;14.55;;;3.60;;
31618;SDS011;18230;51.502;7.108;2023-08-07T11:51:53;12.85;;;2.67;;
31618;SDS011;18230;51.502;7.108;2023-08-07T11:56:55;12.32;;;2.80;;
31618;SDS011;18230;51.502;7.108;2023-08-07T12:01:55;15.40;;;3.20;;
31618;SDS011;18230;51.502;7.108;2023-08-07T12:06:57;11.80;;;2.70;;
31618;SDS011;18230;51.502;7.108;2023-08-07T12:11:58;12.82;;;3.17;;
31618;SDS011;18230;51.502;7.108;2023-08-07T12:17:00;14.48;;;3.03;;
31618;SDS011;18230;51.502;7.108;2023-08-07T12:22:07;13.85;;;2.75;;
31618;SDS011;18230;51.502;7.108;2023-08-07T12:27:10;12.55;;;3.08;;
31618;SDS011;18230;51.502;7.108;2023-08-07T12:32:10;10.13;;;2.78;;
31618;SDS011;18230;51.502;7.108;2023-08-07T12:37:11;10.73;;;2.72;;
31618;SDS011;18230;51.502;7.108;2023-08-07T12:42:12;13.20;;;2.75;;
31618;SDS011;18230;51.502;7.108;2023-08-07T12:47:13;10.68;;;3.05;;
31618;SDS011;18230;51.502;7.108;2023-08-07T12:52:14;9.65;;;2.80;;
31618;SDS011;18230;51.502;7.108;2023-08-07T12:57:14;8.65;;;2.78;;
31618;SDS011;18230;51.502;7.108;2023-08-07T13:02:15;8.45;;;2.50;;
31618;SDS011;18230;51.502;7.108;2023-08-07T13:07:16;8.68;;;2.67;;
31618;SDS011;18230;51.502;7.108;2023-08-07T13:12:17;10.25;;;2.50;;
31618;SDS011;18230;51.502;7.108;2023-08-07T13:17:18;9.38;;;2.30;;
31618;SDS011;18230;51.502;7.108;2023-08-07T13:22:19;11.43;;;2.70;;
31618;SDS011;18230;51.502;7.108;2023-08-07T13:27:19;9.02;;;2.35;;
31618;SDS011;18230;51.502;7.108;2023-08-07T13:32:20;7.90;;;2.67;;
31618;SDS011;18230;51.502;7.108;2023-08-07T13:37:21;16.40;;;2.53;;
31618;SDS011;18230;51.502;7.108;2023-08-07T13:42:25;7.50;;;2.00;;
31618;SDS011;18230;51.502;7.108;2023-08-07T13:47:28;11.57;;;2.70;;
31618;SDS011;18230;51.502;7.108;2023-08-07T13:52:29;6.60;;;2.17;;
31618;SDS011;18230;51.502;7.108;2023-08-07T13:57:29;7.70;;;2.38;;
31618;SDS011;18230;51.502;7.108;2023-08-07T14:02:30;8.65;;;1.90;;
31618;SDS011;18230;51.502;7.108;2023-08-07T14:07:33;12.57;;;2.60;;
31618;SDS011;18230;51.502;7.108;2023-08-07T14:12:33;8.38;;;2.15;;
31618;SDS011;18230;51.502;7.108;2023-08-07T14:17:34;12.85;;;2.20;;
31618;SDS011;18230;51.502;7.108;2023-08-07T14:22:35;7.63;;;2.42;;
31618;SDS011;18230;51.502;7.108;2023-08-07T14:27:36;10.70;;;2.60;;
31618;SDS011;18230;51.502;7.108;2023-08-07T14:32:40;11.23;;;2.72;;
31618;SDS011;18230;51.502;7.108;2023-08-07T14:37:42;12.65;;;2.25;;
31618;SDS011;18230;51.502;7.108;2023-08-07T14:42:43;8.10;;;2.58;;
31618;SDS011;18230;51.502;7.108;2023-08-07T14:47:45;8.70;;;2.40;;
31618;SDS011;18230;51.502;7.108;2023-08-07T14:52:45;13.18;;;2.63;;
31618;SDS011;18230;51.502;7.108;2023-08-07T14:57:46;5.63;;;1.98;;
31618;SDS011;18230;51.502;7.108;2023-08-07T15:02:47;7.82;;;2.10;;
31618;SDS011;18230;51.502;7.108;2023-08-07T15:07:47;11.23;;;3.63;;
31618;SDS011;18230;51.502;7.108;2023-08-07T15:12:48;4.85;;;2.05;;
31618;SDS011;18230;51.502;7.108;2023-08-07T15:17:49;7.90;;;2.40;;
31618;SDS011;18230;51.502;7.108;2023-08-07T15:22:49;7.70;;;2.10;;
31618;SDS011;18230;51.502;7.108;2023-08-07T15:27:50;8.20;;;1.90;;
31618;SDS011;18230;51.502;7.108;2023-08-07T15:32:51;6.60;;;1.90;;
31618;SDS011;18230;51.502;7.108;2023-08-07T15:37:52;7.45;;;2.08;;
31618;SDS011;18230;51.502;7.108;2023-08-07T15:42:52;5.45;;;1.92;;
31618;SDS011;18230;51.502;7.108;2023-08-07T15:47:53;8.35;;;1.45;;
31618;SDS011;18230;51.502;7.108;2023-08-07T15:52:54;5.82;;;1.70;;
31618;SDS011;18230;51.502;7.108;2023-08-07T15:57:56;6.90;;;1.80;;
31618;SDS011;18230;51.502;7.108;2023-08-07T16:02:57;8.55;;;1.63;;
31618;SDS011;18230;51.502;7.108;2023-08-07T16:07:58;7.95;;;2.05;;
31618;SDS011;18230;51.502;7.108;2023-08-07T16:12:59;7.60;;;1.88;;
31618;SDS011;18230;51.502;7.108;2023-08-07T16:18:00;5.65;;;1.80;;
31618;SDS011;18230;51.502;7.108;2023-08-07T16:23:02;8.18;;;2.05;;
31618;SDS011;18230;51.502;7.108;2023-08-07T16:28:02;5.65;;;2.00;;
31618;SDS011;18230;51.502;7.108;2023-08-07T16:33:06;6.82;;;2.22;;
31618;SDS011;18230;51.502;7.108;2023-08-07T16:38:07;7.32;;;1.80;;
31618;SDS011;18230;51.502;7.108;2023-08-07T16:43:08;9.05;;;2.08;;
31618;SDS011;18230;51.502;7.108;2023-08-07T16:48:08;4.10;;;1.90;;
31618;SDS011;18230;51.502;7.108;2023-08-07T16:53:09;7.03;;;2.20;;
31618;SDS011;18230;51.502;7.108;2023-08-07T16:58:11;12.52;;;2.28;;
31618;SDS011;18230;51.502;7.108;2023-08-07T17:03:12;7.97;;;2.35;;
31618;SDS011;18230;51.502;7.108;2023-08-07T17:13:46;10.10;;;2.70;;
31618;SDS011;18230;51.502;7.108;2023-08-07T17:18:52;6.88;;;2.20;;
31618;SDS011;18230;51.502;7.108;2023-08-07T17:29:33;6.47;;;2.35;;
31618;SDS011;18230;51.502;7.108;2023-08-07T17:35:51;4.55;;;2.20;;
31618;SDS011;18230;51.502;7.108;2023-08-07T17:40:53;7.63;;;2.15;;
31618;SDS011;18230;51.502;7.108;2023-08-07T17:46:34;5.85;;;2.28;;
31618;SDS011;18230;51.502;7.108;2023-08-07T17:51:35;3.80;;;1.85;;
31618;SDS011;18230;51.502;7.108;2023-08-07T17:56:55;6.10;;;2.58;;
31618;SDS011;18230;51.502;7.108;2023-08-07T18:01:59;3.15;;;1.70;;
31618;SDS011;18230;51.502;7.108;2023-08-07T18:12:07;4.13;;;1.80;;
31618;SDS011;18230;51.502;7.108;2023-08-07T18:17:26;3.95;;;1.80;;
31618;SDS011;18230;51.502;7.108;2023-08-07T18:22:29;3.92;;;1.85;;
31618;SDS011;18230;51.502;7.108;2023-08-07T18:27:30;7.43;;;1.80;;
31618;SDS011;18230;51.502;7.108;2023-08-07T18:32:38;5.93;;;1.92;;
31618;SDS011;18230;51.502;7.108;2023-08-07T18:37:46;5.20;;;2.13;;
31618;SDS011;18230;51.502;7.108;2023-08-07T18:42:58;4.13;;;2.10;;
31618;SDS011;18230;51.502;7.108;2023-08-07T18:48:02;13.48;;;2.38;;
31618;SDS011;18230;51.502;7.108;2023-08-07T18:53:03;4.70;;;2.00;;
31618;SDS011;18230;51.502;7.108;2023-08-07T18:58:03;4.68;;;2.25;;
31618;SDS011;18230;51.502;7.108;2023-08-07T19:03:04;4.25;;;2.17;;
31618;SDS011;18230;51.502;7.108;2023-08-07T19:08:11;10.38;;;2.30;;
31618;SDS011;18230;51.502;7.108;2023-08-07T19:13:19;6.25;;;2.85;;
31618;SDS011;18230;51.502;7.108;2023-08-07T19:18:38;8.95;;;3.42;;
31618;SDS011;18230;51.502;7.108;2023-08-07T19:23:38;6.47;;;2.97;;
31618;SDS011;18230;51.502;7.108;2023-08-07T19:28:39;7.43;;;3.97;;
31618;SDS011;18230;51.502;7.108;2023-08-07T19:33:40;6.43;;;2.72;;
31618;SDS011;18230;51.502;7.108;2023-08-07T19:38:41;9.88;;;3.08;;
31618;SDS011;18230;51.502;7.108;2023-08-07T19:43:41;8.35;;;4.57;;
31618;SDS011;18230;51.502;7.108;2023-08-07T19:48:43;11.27;;;4.32;;
31618;SDS011;18230;51.502;7.108;2023-08-07T19:53:44;12.55;;;5.60;;
31618;SDS011;18230;51.502;7.108;2023-08-07T19:58:45;9.52;;;3.75;;
31618;SDS011;18230;51.502;7.108;2023-08-07T20:03:46;7.72;;;3.47;;
31618;SDS011;18230;51.502;7.108;2023-08-07T20:08:46;7.50;;;3.90;;
31618;SDS011;18230;51.502;7.108;2023-08-07T20:13:47;9.85;;;3.05;;
31618;SDS011;18230;51.502;7.108;2023-08-07T20:18:48;8.63;;;4.35;;
31618;SDS011;18230;51.502;7.108;2023-08-07T20:23:48;8.70;;;3.60;;
31618;SDS011;18230;51.502;7.108;2023-08-07T20:28:49;8.32;;;3.45;;
31618;SDS011;18230;51.502;7.108;2023-08-07T20:33:50;9.10;;;3.63;;
31618;SDS011;18230;51.502;7.108;2023-08-07T20:38:51;6.57;;;3.25;;
31618;SDS011;18230;51.502;7.108;2023-08-07T20:43:52;8.18;;;3.72;;
31618;SDS011;18230;51.502;7.108;2023-08-07T20:48:53;20.88;;;4.18;;
31618;SDS011;18230;51.502;7.108;2023-08-07T20:53:53;8.07;;;3.60;;
31618;SDS011;18230;51.502;7.108;2023-08-07T20:58:54;6.53;;;3.00;;
31618;SDS011;18230;51.502;7.108;2023-08-07T21:03:54;7.95;;;3.55;;
31618;SDS011;18230;51.502;7.108;2023-08-07T21:08:55;6.25;;;3.35;;
31618;SDS011;18230;51.502;7.108;2023-08-07T21:13:56;8.00;;;3.17;;
31618;SDS011;18230;51.502;7.108;2023-08-07T21:18:56;6.72;;;3.08;;
31618;SDS011;18230;51.502;7.108;2023-08-07T21:23:57;7.68;;;3.38;;
31618;SDS011;18230;51.502;7.108;2023-08-07T21:28:58;6.35;;;3.28;;
31618;SDS011;18230;51.502;7.108;2023-08-07T21:34:01;9.25;;;3.28;;
31618;SDS011;18230;51.502;7.108;2023-08-07T21:39:02;8.75;;;3.40;;
31618;SDS011;18230;51.502;7.108;2023-08-07T21:44:03;9.55;;;3.15;;
31618;SDS011;18230;51.502;7.108;2023-08-07T21:49:04;8.73;;;2.83;;
31618;SDS011;18230;51.502;7.108;2023-08-07T21:54:04;4.53;;;2.63;;
31618;SDS011;18230;51.502;7.108;2023-08-07T21:59:05;7.28;;;2.90;;
31618;SDS011;18230;51.502;7.108;2023-08-07T22:04:06;7.28;;;2.78;;
31618;SDS011;18230;51.502;7.108;2023-08-07T22:09:06;6.43;;;2.53;;
31618;SDS011;18230;51.502;7.108;2023-08-07T22:14:08;10.35;;;2.70;;
31618;SDS011;18230;51.502;7.108;2023-08-07T22:19:08;5.97;;;2.60;;
31618;SDS011;18230;51.502;7.108;2023-08-07T22:24:09;3.15;;;2.03;;
31618;SDS011;18230;51.502;7.108;2023-08-07T22:29:09;4.47;;;2.28;;
31618;SDS011;18230;51.502;7.108;2023-08-07T22:34:10;6.18;;;2.35;;
31618;SDS011;18230;51.502;7.108;2023-08-07T22:39:11;4.60;;;2.20;;
31618;SDS011;18230;51.502;7.108;2023-08-07T22:44:13;6.90;;;2.40;;
31618;SDS011;18230;51.502;7.108;2023-08-07T22:49:13;8.10;;;2.50;;
31618;SDS011;18230;51.502;7.108;2023-08-07T22:54:14;6.40;;;2.67;;
31618;SDS011;18230;51.502;7.108;2023-08-07T22:59:15;5.38;;;2.80;;
31618;SDS011;18230;51.502;7.108;2023-08-07T23:04:16;9.05;;;2.90;;
31618;SDS011;18230;51.502;7.108;2023-08-07T23:09:17;5.80;;;2.58;;
31618;SDS011;18230;51.502;7.108;2023-08-07T23:14:19;6.13;;;2.30;;
31618;SDS011;18230;51.502;7.108;2023-08-07T23:19:19;5.90;;;2.60;;
31618;SDS011;18230;51.502;7.108;2023-08-07T23:24:20;7.40;;;2.85;;
31618;SDS011;18230;51.502;7.108;2023-08-07T23:29:21;7.72;;;2.60;;
31618;SDS011;18230;51.502;7.108;2023-08-07T23:34:21;9.65;;;2.88;;
31618;SDS011;18230;51.502;7.108;2023-08-07T23:39:22;5.00;;;2.80;;
31618;SDS011;18230;51.502;7.108;2023-08-07T23:44:23;5.97;;;2.90;;
31618;SDS011;18230;51.502;7.108;2023-08-07T23:49:23;6.85;;;2.60;;
31618;SDS011;18230;51.502;7.108;2023-08-07T23:54:24;6.05;;;2.65;;
31618;SDS011;18230;51.502;7.108;2023-08-07T23:59:25;7.55;;;2.67;;
